createdAt,value
2023-02-25T00:02:17.512Z,99445.09
2023-02-25T00:04:44.421Z,99450.19
2023-02-25T00:07:11.076Z,99461.63
2023-02-25T00:09:37.738Z,99464.78
2023-02-25T00:12:04.698Z,99464.22
2023-02-25T00:14:31.377Z,99458.22
2023-02-25T00:16:58.217Z,99463.00
2023-02-25T00:19:26.045Z,99453.44
2023-02-25T00:21:52.684Z,99464.13
2023-02-25T00:24:19.339Z,99463.75
2023-02-25T00:26:46.031Z,99463.50
2023-02-25T00:29:14.231Z,99463.31
2023-02-25T00:31:41.171Z,99456.47
2023-02-25T00:34:09.107Z,99472.94
2023-02-25T00:36:36.180Z,99467.53
2023-02-25T00:39:05.847Z,99475.34
2023-02-25T00:41:33.951Z,99465.16
2023-02-25T00:44:02.059Z,99478.91
2023-02-25T00:46:30.434Z,99482.84
2023-02-25T00:48:57.483Z,99480.41
2023-02-25T00:51:30.519Z,99480.25
2023-02-25T00:53:57.586Z,99475.66
2023-02-25T00:56:25.989Z,99487.13
2023-02-25T00:58:53.798Z,99480.97
2023-02-25T01:01:22.066Z,99488.03
2023-02-25T01:03:50.665Z,99483.88
2023-02-25T01:06:17.658Z,99481.66
2023-02-25T01:08:44.964Z,99491.75
2023-02-25T01:11:21.405Z,99489.66
2023-02-25T01:13:49.529Z,99487.94
2023-02-25T01:16:19.195Z,99487.72
2023-02-25T01:18:46.501Z,99489.34
2023-02-25T01:21:17.597Z,99482.31
2023-02-25T01:23:49.402Z,99481.13
2023-02-25T01:26:16.573Z,99485.84
2023-02-25T01:28:43.877Z,99489.56
2023-02-25T01:31:24.668Z,99498.00
2023-02-25T01:33:51.645Z,99499.16
2023-02-25T01:36:18.863Z,99496.63
2023-02-25T01:38:45.507Z,99481.34
2023-02-25T01:41:12.216Z,99488.22
2023-02-25T01:43:40.529Z,99490.06
2023-02-25T01:46:07.252Z,99495.16
2023-02-25T01:48:39.714Z,99491.88
2023-02-25T01:51:10.540Z,99485.16
2023-02-25T01:53:44.313Z,99487.41
2023-02-25T01:56:14.485Z,99493.53
2023-02-25T01:58:42.040Z,99492.63
2023-02-25T02:01:13.031Z,99492.03
2023-02-25T02:03:41.442Z,99499.09
2023-02-25T02:06:28.646Z,99493.06
2023-02-25T02:08:55.562Z,99499.72
2023-02-25T02:11:22.220Z,99489.88
2023-02-25T02:13:54.481Z,99491.06
2023-02-25T02:16:44.939Z,99491.66
2023-02-25T02:19:27.702Z,99490.84
2023-02-25T02:22:14.663Z,99479.50
2023-02-25T02:25:02.606Z,99486.41
2023-02-25T02:27:45.049Z,99478.84
2023-02-25T02:30:53.803Z,99478.22
2023-02-25T02:34:06.505Z,99484.50
2023-02-25T02:36:58.305Z,99472.09
2023-02-25T02:39:34.022Z,99484.66
2023-02-25T02:42:21.228Z,99484.16
2023-02-25T02:45:16.159Z,99490.78
2023-02-25T02:47:46.688Z,99488.34
2023-02-25T02:50:39.477Z,99496.16
2023-02-25T02:53:29.119Z,99494.78
2023-02-25T08:01:57.742Z,99637.41
2023-02-25T08:04:24.646Z,99644.72
2023-02-25T08:06:51.624Z,99640.09
2023-02-25T08:09:18.358Z,99634.66
2023-02-25T08:11:46.338Z,99637.66
2023-02-25T08:14:12.937Z,99635.69
2023-02-25T08:16:39.628Z,99643.47
2023-02-25T08:19:06.813Z,99636.16
2023-02-25T08:21:33.906Z,99637.78
2023-02-25T08:24:00.565Z,99635.94
2023-02-25T08:26:27.649Z,99630.34
2023-02-25T08:28:56.041Z,99640.31
2023-02-25T08:31:23.177Z,99630.69
2023-02-25T08:33:57.088Z,99629.41
2023-02-25T08:36:26.746Z,99628.50
2023-02-25T08:38:55.163Z,99625.81
2023-02-25T08:41:23.411Z,99628.00
2023-02-25T08:43:52.064Z,99624.16
2023-02-25T08:46:21.144Z,99618.97
2023-02-25T08:48:50.008Z,99619.63
2023-02-25T08:51:18.639Z,99628.13
2023-02-25T08:53:45.285Z,99625.41
2023-02-25T08:56:13.841Z,99622.75
2023-02-25T08:58:40.891Z,99629.31
2023-02-25T09:01:12.877Z,99631.81
2023-02-25T09:03:50.982Z,99633.53
2023-02-25T09:06:21.499Z,99636.47
2023-02-25T09:08:48.296Z,99639.88
2023-02-25T09:11:15.462Z,99640.22
2023-02-25T09:13:42.423Z,99643.28
2023-02-25T09:16:09.287Z,99644.00
2023-02-25T09:18:36.440Z,99634.78
2023-02-25T09:21:03.406Z,99639.66
2023-02-25T09:23:30.083Z,99639.22
2023-02-25T09:25:56.717Z,99643.19
2023-02-25T09:28:24.543Z,99649.97
2023-02-25T09:30:51.430Z,99646.50
2023-02-25T09:33:18.183Z,99636.06
2023-02-25T09:35:45.225Z,99637.03
2023-02-25T09:38:13.013Z,99646.13
2023-02-25T09:40:45.159Z,99649.63
2023-02-25T09:43:26.705Z,99648.00
2023-02-25T09:46:05.683Z,99655.13
2023-02-25T09:48:37.880Z,99646.91
2023-02-25T09:51:19.028Z,99639.66
2023-02-25T09:53:52.349Z,99643.69
2023-02-25T09:56:21.824Z,99647.41
2023-02-25T09:58:58.337Z,99654.44
2023-02-25T10:01:42.183Z,99658.41
2023-02-25T10:04:14.717Z,99655.41
2023-02-25T10:06:46.472Z,99663.56
2023-02-25T10:09:37.325Z,99659.88
2023-02-25T10:12:31.861Z,99656.28
2023-02-25T10:15:23.021Z,99657.25
2023-02-25T10:18:37.837Z,99655.69
2023-02-25T10:21:10.466Z,99647.53
2023-02-25T10:23:59.019Z,99652.78
2023-02-25T10:26:33.423Z,99650.22
2023-02-25T10:29:05.586Z,99643.38
2023-02-25T10:31:33.052Z,99637.44
2023-02-25T10:34:21.630Z,99641.22
2023-02-25T10:36:57.539Z,99642.22
2023-02-25T10:39:26.591Z,99637.03
2023-02-25T10:41:53.520Z,99640.47
2023-02-25T10:44:20.390Z,99640.25
2023-02-25T10:47:01.467Z,99636.63
2023-02-25T10:49:30.215Z,99645.72
2023-02-25T10:52:06.226Z,99636.13
2023-02-25T10:54:35.440Z,99644.69
2023-02-25T10:57:09.017Z,99639.44
2023-02-25T10:59:41.191Z,99645.69
2023-02-25T11:02:25.624Z,99649.53
2023-02-25T11:04:53.600Z,99642.91
2023-02-25T11:07:43.499Z,99639.00
2023-02-25T11:10:16.070Z,99637.94
2023-02-25T11:12:47.239Z,99640.97
2023-02-25T11:15:50.065Z,99639.63
2023-02-25T11:18:29.571Z,99641.28
2023-02-25T11:21:00.601Z,99645.38
2023-02-25T11:23:33.081Z,99641.50
2023-02-25T11:26:00.345Z,99648.97
2023-02-25T11:28:39.661Z,99649.97
2023-02-25T11:31:24.932Z,99634.81
2023-02-25T11:34:01.182Z,99629.16
2023-02-25T11:36:34.404Z,99634.81
2023-02-25T11:39:14.486Z,99639.06
2023-02-25T11:41:43.820Z,99634.69
2023-02-25T11:44:45.267Z,99631.66
2023-02-25T11:47:25.623Z,99633.44
2023-02-25T11:50:06.645Z,99623.22
2023-02-25T11:52:48.564Z,99618.72
2023-02-25T11:55:36.710Z,99622.25
2023-02-25T11:58:22.871Z,99624.69
2023-02-25T12:01:16.818Z,99620.94
2023-02-25T12:04:01.839Z,99613.88
2023-02-25T12:06:44.125Z,99611.22
2023-02-25T12:09:41.669Z,99617.88
2023-02-25T12:12:08.370Z,99612.94
2023-02-25T12:15:03.701Z,99607.69
2023-02-25T12:17:58.240Z,99608.97
2023-02-25T12:21:15.209Z,99605.25
2023-02-25T12:24:04.173Z,99608.31
2023-02-25T12:26:51.061Z,99586.91
2023-02-25T12:29:36.257Z,99596.75
2023-02-25T12:32:12.296Z,99595.38
2023-02-25T12:34:51.156Z,99583.81
2023-02-25T12:37:34.027Z,99584.41
2023-02-25T12:40:24.379Z,99578.69
2023-02-25T12:43:06.829Z,99579.22
2023-02-25T12:45:59.468Z,99572.69
2023-02-25T12:48:38.238Z,99580.59
2023-02-25T12:51:21.447Z,99585.13
2023-02-25T12:54:02.614Z,99581.44
2023-02-25T12:56:41.364Z,99581.53
2023-02-25T12:59:35.850Z,99590.22
2023-02-25T13:02:19.816Z,99580.81
2023-02-25T13:05:12.994Z,99579.63
2023-02-25T13:08:07.224Z,99592.38
2023-02-25T13:11:22.590Z,99580.34
2023-02-25T13:14:12.274Z,99587.88
2023-02-25T13:17:01.107Z,99586.69
2023-02-25T13:19:58.784Z,99581.97
2023-02-25T13:22:48.716Z,99582.53
2023-02-25T13:25:36.079Z,99575.50
2023-02-25T13:28:29.481Z,99569.41
2023-02-25T13:31:05.978Z,99564.41
2023-02-25T13:33:51.475Z,99570.81
2023-02-25T13:36:44.572Z,99566.41
2023-02-25T13:39:32.433Z,99580.75
2023-02-25T13:42:17.849Z,99583.22
2023-02-25T13:45:01.505Z,99580.28
2023-02-25T13:47:54.192Z,99588.09
2023-02-25T13:50:46.678Z,99582.69
2023-02-25T13:53:22.909Z,99589.63
2023-02-25T13:56:26.654Z,99594.25
2023-02-25T13:58:56.046Z,99595.19
2023-02-25T14:01:30.248Z,99591.16
2023-02-25T14:04:06.171Z,99600.41
2023-02-25T14:06:44.948Z,99596.66
2023-02-25T14:09:27.431Z,99600.28
2023-02-25T14:12:12.657Z,99600.06
2023-02-25T14:15:00.876Z,99601.03
2023-02-25T14:17:50.167Z,99606.94
2023-02-25T14:20:36.703Z,99618.41
2023-02-25T14:23:20.950Z,99610.63
2023-02-25T14:26:07.316Z,99614.59
2023-02-25T14:28:51.874Z,99621.19
2023-02-25T14:31:34.344Z,99614.44
2023-02-25T14:34:12.392Z,99616.09
2023-02-25T14:36:59.896Z,99613.56
2023-02-25T14:39:45.740Z,99607.91
2023-02-25T14:42:33.116Z,99616.84
2023-02-25T14:45:26.225Z,99617.19
2023-02-25T14:48:04.400Z,99616.59
2023-02-25T14:50:46.280Z,99608.81
2023-02-25T14:53:46.306Z,99617.97
2023-02-25T14:56:37.541Z,99621.75
2023-02-25T14:59:24.494Z,99621.56
2023-02-25T15:02:26.009Z,99634.59
2023-02-25T15:05:23.245Z,99631.31
2023-02-25T15:08:12.139Z,99630.09
2023-02-25T15:10:50.698Z,99624.66
2023-02-25T15:13:46.579Z,99633.28
2023-02-25T15:16:51.354Z,99638.13
2023-02-25T15:19:44.264Z,99639.09
2023-02-25T15:22:18.341Z,99631.59
2023-02-25T15:24:45.772Z,99635.47
2023-02-25T15:27:37.189Z,99639.50
2023-02-25T15:30:24.594Z,99646.66
2023-02-25T15:33:00.698Z,99653.56
2023-02-25T15:35:36.272Z,99653.81
2023-02-25T15:38:13.576Z,99651.31
2023-02-25T15:40:48.885Z,99658.94
2023-02-25T15:43:16.136Z,99658.50
2023-02-25T15:45:51.556Z,99664.66
2023-02-25T15:48:21.130Z,99673.88
2023-02-25T15:50:47.691Z,99681.16
2023-02-25T15:53:21.152Z,99686.00
2023-02-25T15:55:52.812Z,99689.59
2023-02-25T15:58:25.568Z,99702.47
2023-02-25T16:00:52.321Z,99717.41
2023-02-25T16:03:31.228Z,99730.53
2023-02-25T16:06:20.667Z,99728.78
2023-02-25T16:08:56.648Z,99743.50
2023-02-25T16:11:50.987Z,99758.00
2023-02-25T16:14:26.538Z,99754.00
2023-02-25T16:16:59.208Z,99747.88
2023-02-25T16:19:33.253Z,99754.97
2023-02-25T16:22:03.626Z,99766.81
2023-02-25T16:24:31.012Z,99768.00
2023-02-25T16:27:04.625Z,99773.34
2023-02-25T16:29:44.185Z,99770.19
2023-02-25T16:32:38.699Z,99773.34
2023-02-25T16:35:18.321Z,99774.50
2023-02-25T16:37:57.032Z,99777.88
2023-02-25T16:40:50.093Z,99776.00
2023-02-25T16:43:22.262Z,99774.66
2023-02-25T16:45:59.138Z,99782.72
2023-02-25T16:48:36.827Z,99785.41
2023-02-25T16:51:36.813Z,99792.38
2023-02-25T16:54:06.167Z,99801.56
2023-02-25T16:56:33.517Z,99799.34
2023-02-25T16:59:14.971Z,99806.22
2023-02-25T17:02:22.013Z,99812.81
2023-02-25T17:04:56.165Z,99814.78
2023-02-25T17:07:24.308Z,99814.06
2023-02-25T17:09:53.848Z,99814.78
2023-02-25T17:12:41.105Z,99820.47
2023-02-25T17:15:16.182Z,99819.91
2023-02-25T17:17:44.875Z,99834.56
2023-02-25T17:20:19.209Z,99831.41
2023-02-25T17:22:46.084Z,99831.81
2023-02-25T17:25:16.113Z,99841.59
2023-02-25T17:27:45.369Z,99843.69
2023-02-25T17:30:40.392Z,99851.69
2023-02-25T17:33:18.901Z,99855.97
2023-02-25T17:35:48.206Z,99861.16
2023-02-25T17:38:19.330Z,99861.38
2023-02-25T17:40:47.060Z,99865.47
2023-02-25T17:43:19.636Z,99874.19
2023-02-25T17:45:53.422Z,99871.34
2023-02-25T17:48:23.904Z,99876.91
2023-02-25T17:51:00.845Z,99887.19
2023-02-25T17:53:37.828Z,99883.41
2023-02-25T17:56:10.646Z,99900.13
2023-02-25T17:58:37.466Z,99887.66
2023-02-25T18:01:05.820Z,99890.84
2023-02-25T18:03:45.057Z,99893.56
2023-02-25T18:06:38.421Z,99899.44
2023-02-25T18:09:05.281Z,99905.03
2023-02-25T18:11:36.251Z,99898.16
2023-02-25T18:14:22.673Z,99910.97
2023-02-25T18:16:52.195Z,99912.19
2023-02-25T18:19:24.714Z,99912.25
2023-02-25T18:21:52.777Z,99920.75
2023-02-25T18:24:36.113Z,99917.97
2023-02-25T18:27:14.939Z,99933.50
2023-02-25T18:29:41.633Z,99932.63
2023-02-25T18:32:08.409Z,99937.63
2023-02-25T18:34:35.134Z,99931.84
2023-02-25T18:37:02.255Z,99936.44
2023-02-25T18:39:28.906Z,99947.72
2023-02-25T18:41:55.540Z,99948.06
2023-02-25T18:44:22.284Z,99955.63
2023-02-25T18:46:49.032Z,99957.31
2023-02-25T18:49:15.799Z,99946.06
2023-02-25T18:51:42.579Z,99959.41
2023-02-25T18:54:16.119Z,99959.53
2023-02-25T18:56:43.112Z,99964.34
2023-02-25T18:59:09.824Z,99971.19
2023-02-25T19:01:37.354Z,99968.56
2023-02-25T19:04:04.083Z,99972.81
2023-02-25T19:06:33.693Z,99973.88
2023-02-25T19:09:01.029Z,99974.34
2023-02-25T19:11:35.798Z,99980.44
2023-02-25T19:14:04.266Z,99972.91
2023-02-25T19:16:31.071Z,99978.91
2023-02-25T19:18:57.994Z,99985.47
2023-02-25T19:21:24.829Z,99987.41
2023-02-25T19:23:53.476Z,99989.81
2023-02-25T19:26:21.048Z,99995.94
2023-02-25T19:28:47.847Z,100006.06
2023-02-25T19:31:14.718Z,100010.75
2023-02-25T19:33:41.478Z,100019.38
2023-02-25T19:36:08.683Z,100025.75
2023-02-25T19:38:36.077Z,100026.59
2023-02-25T19:41:05.978Z,100035.81
2023-02-25T19:43:33.266Z,100037.00
2023-02-25T19:46:00.010Z,100044.38
2023-02-25T19:48:27.017Z,100042.59
2023-02-25T19:50:53.825Z,100049.53
2023-02-25T19:53:20.522Z,100054.22
2023-02-25T19:55:47.228Z,100064.69
2023-02-25T19:58:14.111Z,100066.97
2023-02-25T20:00:45.871Z,100064.53
2023-02-25T20:03:13.857Z,100069.38
2023-02-25T20:05:41.622Z,100078.19
2023-02-25T20:08:09.082Z,100078.06
2023-02-25T20:10:36.203Z,100081.88
2023-02-25T20:13:03.135Z,100082.56
2023-02-25T20:15:29.976Z,100080.50
2023-02-25T20:17:57.575Z,100072.94
2023-02-25T20:20:24.900Z,100082.56
2023-02-25T20:22:52.234Z,100082.13
2023-02-25T20:25:19.340Z,100089.34
2023-02-25T20:27:46.153Z,100097.06
2023-02-25T20:30:15.426Z,100094.88
2023-02-25T20:32:44.208Z,100093.25
2023-02-25T20:35:20.492Z,100093.25
2023-02-25T20:38:08.380Z,100101.41
2023-02-25T20:40:35.320Z,100100.81
2023-02-25T20:43:02.098Z,100100.00
2023-02-25T20:45:30.049Z,100093.66
2023-02-25T20:47:56.917Z,100107.72
2023-02-25T20:50:27.836Z,100108.00
2023-02-25T20:52:54.968Z,100103.03
2023-02-25T20:55:21.710Z,100106.97
2023-02-25T20:57:48.362Z,100113.88
2023-02-25T21:00:16.545Z,100107.59
2023-02-25T21:02:43.598Z,100114.88
2023-02-25T21:05:10.289Z,100116.91
2023-02-25T21:07:36.904Z,100124.72
2023-02-25T21:10:03.853Z,100126.78
2023-02-25T21:12:30.765Z,100131.28
2023-02-25T21:14:57.705Z,100135.19
2023-02-25T21:17:24.447Z,100131.75
2023-02-25T21:19:51.464Z,100144.03
2023-02-25T21:22:18.673Z,100135.53
2023-02-25T21:24:45.521Z,100148.91
2023-02-25T21:27:12.148Z,100146.69
2023-02-25T21:29:38.808Z,100151.00
2023-02-25T21:32:05.547Z,100151.81
2023-02-25T21:34:32.318Z,100149.38
2023-02-25T21:36:59.328Z,100152.81
2023-02-25T21:39:26.640Z,100139.53
2023-02-25T21:41:53.588Z,100150.41
2023-02-25T21:44:20.464Z,100145.66
2023-02-25T21:46:47.883Z,100146.69
2023-02-25T21:49:15.878Z,100142.00
2023-02-25T21:51:42.834Z,100146.72
2023-02-25T21:54:10.179Z,100151.81
2023-02-25T21:56:36.893Z,100149.56
2023-02-25T21:59:05.447Z,100153.88
2023-02-25T22:01:38.490Z,100154.06
2023-02-25T22:04:05.372Z,100155.28
2023-02-25T22:06:32.431Z,100163.69
2023-02-25T22:09:00.108Z,100157.94
2023-02-25T22:11:29.779Z,100160.78
2023-02-25T22:13:58.933Z,100162.44
2023-02-25T22:16:26.534Z,100164.09
2023-02-25T22:18:53.684Z,100164.09
2023-02-25T22:21:25.732Z,100171.44
2023-02-25T22:23:55.256Z,100163.44
2023-02-25T22:26:25.641Z,100168.16
2023-02-25T22:28:54.773Z,100169.41
2023-02-25T22:31:21.719Z,100160.59
2023-02-25T22:33:48.749Z,100170.00
2023-02-25T22:36:17.100Z,100177.75
2023-02-25T22:38:45.159Z,100178.56
2023-02-25T22:41:17.402Z,100179.59
2023-02-25T22:43:44.868Z,100177.56
2023-02-25T22:46:17.294Z,100193.50
2023-02-25T22:48:45.988Z,100187.94
2023-02-25T22:51:14.043Z,100183.03
2023-02-25T22:53:41.090Z,100185.75
2023-02-25T22:56:10.590Z,100187.75
2023-02-25T22:58:40.452Z,100193.69
2023-02-25T23:01:11.767Z,100195.50
2023-02-25T23:03:39.019Z,100182.44
2023-02-25T23:06:06.758Z,100192.84
2023-02-25T23:08:34.728Z,100197.97
2023-02-25T23:11:19.786Z,100196.94
2023-02-25T23:13:49.976Z,100195.06
2023-02-25T23:16:19.430Z,100198.53
2023-02-25T23:18:47.558Z,100198.75
2023-02-25T23:21:19.081Z,100205.50
2023-02-25T23:23:51.540Z,100206.91
2023-02-25T23:26:22.272Z,100207.53
2023-02-25T23:28:49.532Z,100206.31
2023-02-25T23:31:25.292Z,100222.78
2023-02-25T23:34:09.319Z,100205.44
2023-02-25T23:36:37.841Z,100210.97
2023-02-25T23:39:06.142Z,100218.50
2023-02-25T23:41:35.098Z,100213.81
2023-02-25T23:44:03.249Z,100210.13
2023-02-25T23:46:31.429Z,100217.41
2023-02-25T23:49:00.908Z,100220.91
2023-02-25T23:51:28.316Z,100223.16
2023-02-25T23:54:06.008Z,100211.09
2023-02-25T23:56:34.275Z,100211.72
2023-02-25T23:59:01.577Z,100217.22
